createdAt,value
2023-05-06T00:01:00.724Z,6.97
2023-05-06T00:06:06.250Z,7.22
2023-05-06T00:11:07.703Z,9.93
2023-05-06T00:16:09.852Z,7.78
2023-05-06T00:21:11.383Z,6.90
2023-05-06T00:26:14.152Z,6.25
2023-05-06T00:31:15.612Z,8.70
2023-05-06T00:36:17.437Z,7.70
2023-05-06T00:41:18.924Z,7.78
2023-05-06T00:46:20.951Z,6.22
2023-05-06T00:51:22.980Z,8.05
2023-05-06T00:56:25.707Z,7.82
2023-05-06T01:01:29.589Z,6.75
2023-05-06T01:06:54.779Z,7.65
2023-05-06T01:12:24.185Z,7.97
2023-05-06T01:17:28.325Z,9.52
2023-05-06T01:22:31.460Z,6.30
2023-05-06T01:27:32.891Z,5.22
2023-05-06T01:33:11.641Z,8.50
2023-05-06T01:38:42.301Z,8.95
2023-05-06T01:43:47.989Z,5.60
2023-05-06T01:48:53.920Z,9.07
2023-05-06T01:53:57.409Z,5.00
2023-05-06T01:58:59.724Z,7.68
2023-05-06T02:04:01.789Z,9.55
2023-05-06T02:09:04.109Z,5.47
2023-05-06T02:14:08.761Z,5.85
2023-05-06T02:19:12.272Z,9.73
2023-05-06T02:24:13.861Z,4.60
2023-05-06T02:29:15.325Z,8.55
2023-05-06T02:34:17.221Z,10.93
2023-05-06T02:39:18.640Z,10.23
2023-05-06T02:44:20.105Z,10.90
2023-05-06T02:49:21.524Z,12.50
2023-05-06T03:14:25.945Z,8.52
2023-05-06T03:20:12.642Z,5.90
2023-05-06T03:25:20.163Z,4.55
2023-05-06T03:30:22.598Z,8.65
2023-05-06T03:35:27.680Z,9.65
2023-05-06T03:40:32.733Z,8.10
2023-05-06T03:45:34.564Z,7.15
2023-05-06T03:50:38.351Z,5.22
2023-05-06T03:55:40.041Z,10.35
2023-05-06T04:00:41.834Z,9.82
2023-05-06T04:05:43.416Z,7.88
2023-05-06T04:10:47.174Z,9.27
2023-05-06T04:15:56.736Z,5.00
2023-05-06T04:21:03.459Z,13.93
2023-05-06T04:26:07.426Z,9.98
2023-05-06T04:31:14.524Z,10.40
2023-05-06T04:36:19.892Z,12.82
2023-05-06T04:41:35.485Z,9.52
2023-05-06T04:46:37.286Z,12.18
2023-05-06T04:51:38.959Z,11.73
2023-05-06T04:56:40.593Z,9.25
2023-05-06T05:01:44.768Z,10.38
2023-05-06T05:06:46.402Z,12.50
2023-05-06T05:11:49.485Z,12.73
2023-05-06T05:16:51.333Z,19.15
2023-05-06T05:21:52.962Z,10.48
2023-05-06T05:26:56.204Z,14.63
2023-05-06T05:31:58.283Z,17.48
2023-05-06T05:37:00.008Z,11.88
2023-05-06T05:42:02.240Z,17.95
2023-05-06T05:47:03.934Z,14.02
2023-05-06T05:52:07.344Z,10.75
2023-05-06T05:57:09.331Z,13.15
2023-05-06T06:02:11.833Z,19.15
2023-05-06T06:07:13.407Z,16.70
2023-05-06T06:12:18.040Z,18.20
2023-05-06T06:17:20.304Z,18.38
2023-05-06T06:22:23.482Z,11.35
2023-05-06T06:27:25.778Z,12.68
2023-05-06T06:32:27.603Z,12.52
2023-05-06T06:37:29.080Z,14.68
2023-05-06T06:42:30.603Z,14.52
2023-05-06T06:47:41.583Z,13.50
2023-05-06T06:52:43.097Z,18.00
2023-05-06T06:57:44.592Z,17.60
2023-05-06T07:02:48.072Z,17.85
2023-05-06T07:07:49.593Z,14.23
2023-05-06T07:12:51.076Z,14.32
2023-05-06T07:17:52.560Z,12.35
2023-05-06T07:22:54.042Z,12.48
2023-05-06T07:27:55.502Z,14.52
2023-05-06T07:32:57.374Z,22.40
2023-05-06T07:37:58.874Z,15.63
2023-05-06T07:43:00.426Z,23.45
2023-05-06T07:48:01.914Z,18.02
2023-05-06T07:53:03.970Z,22.88
2023-05-06T07:58:05.748Z,24.38
2023-05-06T08:03:07.484Z,17.48
2023-05-06T08:08:08.991Z,23.30
2023-05-06T08:13:11.614Z,22.65
2023-05-06T08:18:21.697Z,23.30
2023-05-06T08:23:24.602Z,14.65
2023-05-06T08:28:26.135Z,23.25
2023-05-06T08:33:27.594Z,21.95
2023-05-06T08:38:29.834Z,24.92
2023-05-06T08:43:33.429Z,27.58
2023-05-06T08:48:35.174Z,17.83
2023-05-06T08:53:37.023Z,22.38
2023-05-06T08:58:48.155Z,26.05
2023-05-06T09:03:50.127Z,22.70
2023-05-06T09:08:51.564Z,24.48
2023-05-06T09:14:17.418Z,26.70
2023-05-06T09:19:20.504Z,25.65
2023-05-06T09:24:22.170Z,22.48
2023-05-06T09:29:23.686Z,22.50
2023-05-06T09:34:25.197Z,26.83
2023-05-06T09:39:27.596Z,18.73
2023-05-06T09:44:29.116Z,20.10
2023-05-06T09:49:31.109Z,21.98
2023-05-06T09:54:33.120Z,20.42
2023-05-06T09:59:36.212Z,20.42
2023-05-06T10:04:40.708Z,25.58
2023-05-06T10:09:42.579Z,23.73
2023-05-06T10:14:44.037Z,24.60
2023-05-06T10:19:46.845Z,23.23
2023-05-06T10:24:55.912Z,19.88
2023-05-06T10:29:59.818Z,20.83
2023-05-06T10:35:08.522Z,18.08
2023-05-06T10:40:11.584Z,16.10
2023-05-06T10:45:15.253Z,16.13
2023-05-06T10:50:27.150Z,11.85
2023-05-06T10:55:35.186Z,16.33
2023-05-06T11:00:39.816Z,13.27
2023-05-06T11:05:54.638Z,13.75
2023-05-06T11:10:56.216Z,13.85
2023-05-06T11:15:58.439Z,13.60
2023-05-06T11:20:59.825Z,13.70
2023-05-06T11:26:01.621Z,10.63
2023-05-06T11:31:03.213Z,11.88
2023-05-06T11:36:05.178Z,12.55
2023-05-06T11:41:07.358Z,14.32
2023-05-06T11:46:08.798Z,21.05
2023-05-06T11:51:10.245Z,20.17
2023-05-06T11:56:11.837Z,21.15
2023-05-06T12:01:13.265Z,20.38
2023-05-06T12:06:14.912Z,19.08
2023-05-06T12:11:16.359Z,15.98
2023-05-06T12:16:18.126Z,16.05
2023-05-06T12:21:24.192Z,20.75
2023-05-06T12:26:30.534Z,17.17
2023-05-06T12:31:32.788Z,17.67
2023-05-06T12:36:42.404Z,18.83
2023-05-06T12:41:45.661Z,14.30
2023-05-06T12:46:52.493Z,16.80
2023-05-06T12:52:11.129Z,15.68
2023-05-06T12:57:13.362Z,15.73
2023-05-06T13:02:15.223Z,15.07
2023-05-06T13:07:16.706Z,13.13
2023-05-06T13:12:18.135Z,10.63
2023-05-06T13:17:19.664Z,19.83
2023-05-06T13:22:21.129Z,18.10
2023-05-06T13:27:22.558Z,15.88
2023-05-06T13:38:52.139Z,25.73
2023-05-06T13:43:56.483Z,23.23
2023-05-06T13:48:57.904Z,25.77
2023-05-06T13:53:59.387Z,22.25
2023-05-06T13:59:00.805Z,25.55
2023-05-06T14:04:02.225Z,21.33
2023-05-06T14:09:04.648Z,23.90
2023-05-06T14:14:06.878Z,24.20
2023-05-06T14:19:08.308Z,24.98
2023-05-06T14:24:10.820Z,20.65
2023-05-06T14:29:12.264Z,24.88
2023-05-06T14:34:13.697Z,25.45
2023-05-06T14:39:18.686Z,17.80
2023-05-06T14:44:20.672Z,18.35
2023-05-06T14:49:22.158Z,26.77
2023-05-06T14:54:23.588Z,21.67
2023-05-06T14:59:25.441Z,24.98
2023-05-06T15:04:27.457Z,25.10
2023-05-06T15:09:28.927Z,21.35
2023-05-06T15:14:30.484Z,19.15
2023-05-06T15:19:33.417Z,21.60
2023-05-06T15:24:35.765Z,18.08
2023-05-06T15:29:38.961Z,22.65
2023-05-06T15:34:40.809Z,25.05
2023-05-06T15:39:42.299Z,18.42
2023-05-06T15:44:43.846Z,15.85
2023-05-06T15:49:52.907Z,19.20
2023-05-06T15:54:59.481Z,20.65
2023-05-06T16:00:01.785Z,22.33
2023-05-06T16:05:06.796Z,21.02
2023-05-06T16:10:08.927Z,22.15
2023-05-06T16:15:10.662Z,19.98
2023-05-06T16:20:12.784Z,24.77
2023-05-06T16:25:14.471Z,22.88
2023-05-06T16:30:16.118Z,28.40
2023-05-06T16:35:17.945Z,20.33
2023-05-06T16:40:20.970Z,21.80
2023-05-06T16:45:47.662Z,22.67
2023-05-06T16:50:49.113Z,14.07
2023-05-06T16:55:50.555Z,24.80
2023-05-06T17:00:54.294Z,22.98
2023-05-06T17:05:55.876Z,23.15
2023-05-06T17:10:57.342Z,19.98
2023-05-06T17:16:03.588Z,22.30
2023-05-06T17:21:08.756Z,21.58
2023-05-06T17:26:10.604Z,23.42
2023-05-06T17:31:12.384Z,28.23
2023-05-06T17:36:14.024Z,23.45
2023-05-06T17:41:15.780Z,23.45
2023-05-06T17:46:19.523Z,21.10
2023-05-06T17:51:21.172Z,20.15
2023-05-06T17:56:22.590Z,25.38
2023-05-06T18:01:24.090Z,21.00
2023-05-06T18:06:26.977Z,20.38
2023-05-06T18:11:28.460Z,31.23
2023-05-06T18:16:30.025Z,18.27
2023-05-06T18:21:33.858Z,18.63
2023-05-06T18:26:44.491Z,15.65
2023-05-06T18:31:46.652Z,18.58
2023-05-06T18:36:48.136Z,17.70
2023-05-06T18:41:49.612Z,15.52
2023-05-06T18:46:51.043Z,20.10
2023-05-06T18:51:54.025Z,14.50
2023-05-06T18:56:55.513Z,16.52
2023-05-06T19:01:57.057Z,12.75
2023-05-06T19:06:58.566Z,15.35
2023-05-06T19:11:59.993Z,12.10
2023-05-06T19:17:03.676Z,11.35
2023-05-06T19:22:05.168Z,11.88
2023-05-06T19:27:06.651Z,12.52
2023-05-06T19:32:08.586Z,13.93
2023-05-06T19:37:10.008Z,12.25
2023-05-06T19:42:11.432Z,16.27
2023-05-06T19:47:13.193Z,12.63
2023-05-06T19:52:14.659Z,13.10
2023-05-06T19:57:16.073Z,8.05
2023-05-06T20:02:17.518Z,15.75
2023-05-06T20:07:20.561Z,12.77
2023-05-06T20:12:23.573Z,15.00
2023-05-06T20:17:25.098Z,14.60
2023-05-06T20:22:27.059Z,12.45
2023-05-06T20:27:28.494Z,13.70
2023-05-06T20:32:30.996Z,10.52
2023-05-06T20:37:36.074Z,10.82
2023-05-06T20:42:37.635Z,8.90
2023-05-06T20:47:39.115Z,9.90
2023-05-06T20:52:40.562Z,10.00
2023-05-06T20:57:43.391Z,7.68
2023-05-06T21:02:44.950Z,9.25
2023-05-06T21:07:46.921Z,8.10
2023-05-06T21:12:49.483Z,8.23
2023-05-06T21:17:51.133Z,8.68
2023-05-06T21:22:52.640Z,10.77
2023-05-06T21:27:54.073Z,13.23
2023-05-06T21:32:55.617Z,14.77
2023-05-06T21:37:57.055Z,15.93
2023-05-06T21:42:58.498Z,13.77
2023-05-06T21:48:00.108Z,13.63
2023-05-06T21:53:01.569Z,16.42
2023-05-06T22:03:04.431Z,9.65
2023-05-06T22:08:06.562Z,13.27
2023-05-06T22:13:08.130Z,13.10
2023-05-06T22:18:10.245Z,7.60
2023-05-06T22:23:12.349Z,10.27
2023-05-06T22:28:13.792Z,9.85
2023-05-06T22:33:15.238Z,12.50
2023-05-06T22:38:16.656Z,13.18
2023-05-06T22:43:18.068Z,13.55
2023-05-06T22:48:19.483Z,11.93
2023-05-06T22:53:20.897Z,13.48
2023-05-06T22:58:22.367Z,8.60
2023-05-06T23:03:23.932Z,12.50
2023-05-06T23:08:25.453Z,7.18
2023-05-06T23:13:27.193Z,7.15
2023-05-06T23:18:28.659Z,6.22
2023-05-06T23:23:30.094Z,11.18
2023-05-06T23:28:31.559Z,15.98
2023-05-06T23:33:33.005Z,13.80
2023-05-06T23:38:34.420Z,14.10
2023-05-06T23:43:35.846Z,14.38
2023-05-06T23:48:37.994Z,12.23
2023-05-06T23:53:40.185Z,16.35
2023-05-06T23:58:41.607Z,11.05
